createdAt,value
2019-04-06T00:01:00.654Z,22.40
2019-04-06T00:03:30.034Z,21.47
2019-04-06T00:05:59.498Z,20.30
2019-04-06T00:08:29.270Z,22.17
2019-04-06T00:10:58.885Z,22.47
2019-04-06T00:13:28.593Z,22.10
2019-04-06T00:15:58.049Z,22.30
2019-04-06T00:18:27.860Z,20.03
2019-04-06T00:20:57.540Z,21.50
2019-04-06T00:23:27.101Z,22.07
2019-04-06T00:25:56.464Z,23.07
2019-04-06T00:28:26.075Z,22.43
2019-04-06T00:31:17.358Z,21.40
2019-04-06T00:33:46.812Z,22.63
2019-04-06T00:36:16.337Z,21.27
2019-04-06T00:38:45.728Z,21.53
2019-04-06T00:41:15.581Z,22.10
2019-04-06T00:43:45.046Z,21.97
2019-04-06T00:46:14.411Z,21.40
2019-04-06T00:48:44.203Z,21.77
2019-04-06T00:51:14.360Z,22.20
2019-04-06T00:53:44.028Z,21.27
2019-04-06T00:56:13.496Z,21.27
2019-04-06T00:58:43.247Z,21.63
2019-04-06T01:01:13.366Z,21.40
2019-04-06T01:03:42.809Z,21.37
2019-04-06T01:06:12.606Z,22.80
2019-04-06T01:08:42.734Z,22.37
2019-04-06T01:11:12.181Z,21.17
2019-04-06T01:13:41.896Z,22.00
2019-04-06T01:16:11.713Z,22.07
2019-04-06T01:18:41.150Z,22.50
2019-04-06T01:21:10.545Z,21.27
2019-04-06T01:23:40.352Z,21.73
2019-04-06T01:26:09.810Z,21.77
2019-04-06T01:28:39.240Z,19.80
2019-04-06T01:31:08.961Z,20.87
2019-04-06T01:33:38.396Z,21.27
2019-04-06T01:36:07.800Z,20.80
2019-04-06T01:38:37.166Z,21.53
2019-04-06T01:41:06.630Z,21.60
2019-04-06T01:43:36.391Z,20.63
2019-04-06T01:46:05.966Z,20.03
2019-04-06T01:48:35.437Z,19.27
2019-04-06T01:51:05.308Z,21.57
2019-04-06T01:53:34.883Z,22.23
2019-04-06T01:56:04.424Z,21.17
2019-04-06T01:58:33.796Z,21.60
2019-04-06T02:01:16.858Z,20.73
2019-04-06T02:03:46.297Z,22.07
2019-04-06T02:06:15.701Z,20.47
2019-04-06T02:08:45.446Z,21.20
2019-04-06T02:11:15.593Z,22.73
2019-04-06T02:13:44.958Z,21.00
2019-04-06T02:16:14.804Z,21.13
2019-04-06T02:18:44.327Z,22.17
2019-04-06T02:21:14.089Z,20.63
2019-04-06T02:23:43.448Z,22.43
2019-04-06T02:26:13.137Z,22.73
2019-04-06T02:28:42.882Z,21.80
2019-04-06T02:31:18.852Z,21.90
2019-04-06T02:34:10.465Z,20.33
2019-04-06T02:36:58.677Z,21.00
2019-04-06T02:39:39.478Z,21.20
2019-04-06T02:42:19.561Z,20.57
2019-04-06T02:44:49.379Z,20.97
2019-04-06T02:47:19.202Z,23.13
2019-04-06T02:49:48.645Z,22.33
2019-04-06T02:52:18.672Z,22.77
2019-04-06T02:54:48.052Z,21.97
2019-04-06T02:57:17.512Z,22.27
2019-04-06T02:59:46.977Z,22.93
2019-04-06T03:02:16.465Z,22.03
2019-04-06T03:04:45.968Z,22.33
2019-04-06T03:07:15.550Z,21.77
2019-04-06T03:09:44.981Z,21.90
2019-04-06T03:12:14.531Z,21.67
2019-04-06T03:14:44.833Z,23.10
2019-04-06T03:17:14.712Z,22.37
2019-04-06T03:19:44.076Z,22.87
2019-04-06T03:22:13.538Z,22.07
2019-04-06T03:24:42.973Z,22.83
2019-04-06T03:27:12.356Z,22.57
2019-04-06T03:29:56.192Z,21.90
2019-04-06T03:32:13.716Z,22.13
2019-04-06T03:34:43.389Z,21.60
2019-04-06T03:37:13.216Z,21.20
2019-04-06T03:39:43.349Z,22.20
2019-04-06T03:42:12.833Z,21.50
2019-04-06T03:44:42.567Z,21.67
2019-04-06T03:47:12.498Z,21.03
2019-04-06T03:49:41.856Z,22.17
2019-04-06T03:52:11.773Z,21.73
2019-04-06T03:54:41.230Z,22.03
2019-04-06T03:57:16.288Z,20.83
2019-04-06T03:59:42.421Z,20.13
2019-04-06T04:02:12.246Z,21.40
2019-04-06T04:04:42.052Z,21.50
2019-04-06T04:07:12.206Z,22.03
2019-04-06T04:09:41.665Z,23.33
2019-04-06T04:12:11.716Z,22.43
2019-04-06T04:14:41.175Z,23.37
2019-04-06T04:17:11.072Z,22.30
2019-04-06T04:19:40.866Z,22.20
2019-04-06T04:22:10.682Z,23.97
2019-04-06T04:24:40.410Z,23.37
2019-04-06T04:27:10.209Z,22.00
2019-04-06T04:29:39.681Z,21.60
2019-04-06T04:32:09.206Z,22.57
2019-04-06T04:34:38.714Z,21.63
2019-04-06T04:37:08.167Z,23.67
2019-04-06T04:39:38.007Z,22.30
2019-04-06T04:42:07.787Z,22.70
2019-04-06T04:44:37.258Z,23.30
2019-04-06T04:47:06.729Z,22.63
2019-04-06T04:49:36.505Z,23.97
2019-04-06T04:52:06.237Z,23.10
2019-04-06T04:54:35.865Z,22.60
2019-04-06T04:57:06.025Z,21.73
2019-04-06T04:59:35.474Z,21.77
2019-04-06T05:02:04.941Z,23.70
2019-04-06T05:04:34.463Z,22.23
2019-04-06T05:07:04.314Z,22.40
2019-04-06T05:09:34.143Z,23.37
2019-04-06T05:12:03.906Z,23.10
2019-04-06T05:14:56.820Z,23.17
2019-04-06T05:17:26.899Z,22.33
2019-04-06T05:19:56.305Z,24.33
2019-04-06T05:22:25.927Z,23.00
2019-04-06T05:24:55.481Z,21.03
2019-04-06T05:27:24.929Z,22.40
2019-04-06T05:29:55.227Z,23.27
2019-04-06T05:32:25.138Z,22.83
2019-04-06T05:34:58.033Z,22.43
2019-04-06T05:37:27.489Z,23.03
2019-04-06T05:39:57.361Z,22.73
2019-04-06T05:42:27.539Z,22.40
2019-04-06T05:44:57.157Z,21.23
2019-04-06T05:47:27.344Z,21.97
2019-04-06T05:49:57.297Z,22.70
2019-04-06T05:52:27.432Z,22.97
2019-04-06T05:54:57.368Z,22.40
2019-04-06T05:57:27.105Z,22.50
2019-04-06T05:59:57.071Z,21.03
2019-04-06T06:02:26.933Z,22.10
2019-04-06T06:04:56.358Z,22.33
2019-04-06T06:07:26.201Z,20.23
2019-04-06T06:09:55.658Z,21.90
2019-04-06T06:12:25.412Z,21.40
2019-04-06T06:14:55.440Z,20.97
2019-04-06T06:17:24.996Z,22.40
2019-04-06T06:19:54.414Z,20.30
2019-04-06T06:22:24.269Z,21.33
2019-04-06T06:24:53.897Z,20.37
2019-04-06T06:27:23.940Z,20.00
2019-04-06T06:29:53.394Z,20.63
2019-04-06T06:32:23.157Z,20.93
2019-04-06T06:34:52.656Z,20.77
2019-04-06T06:37:22.238Z,20.13
2019-04-06T06:39:51.697Z,18.77
2019-04-06T06:42:21.628Z,18.20
2019-04-06T06:44:53.236Z,19.90
2019-04-06T06:47:22.652Z,20.37
2019-04-06T06:49:52.303Z,20.03
2019-04-06T06:52:22.187Z,19.20
2019-04-06T06:54:51.859Z,19.07
2019-04-06T06:57:21.396Z,20.87
2019-04-06T06:59:51.207Z,19.27
2019-04-06T07:02:20.643Z,18.33
2019-04-06T07:04:50.539Z,19.27
2019-04-06T07:07:20.026Z,18.93
2019-04-06T07:09:51.214Z,19.60
2019-04-06T07:12:21.081Z,19.43
2019-04-06T07:14:50.811Z,18.23
2019-04-06T07:17:20.778Z,18.40
2019-04-06T07:19:50.348Z,17.83
2019-04-06T07:22:19.985Z,18.20
2019-04-06T07:24:49.828Z,17.77
2019-04-06T07:27:19.343Z,20.13
2019-04-06T07:29:50.456Z,19.37
2019-04-06T07:32:19.937Z,19.33
2019-04-06T07:34:49.781Z,20.10
2019-04-06T07:37:19.290Z,20.20
2019-04-06T07:39:49.476Z,20.03
2019-04-06T07:42:19.255Z,19.77
2019-04-06T07:45:06.777Z,20.27
2019-04-06T07:47:36.633Z,19.30
2019-04-06T07:50:51.145Z,19.70
2019-04-06T07:53:17.725Z,19.20
2019-04-06T07:55:47.490Z,19.37
2019-04-06T07:58:17.985Z,19.73
2019-04-06T08:00:50.373Z,19.53
2019-04-06T08:03:20.685Z,19.90
2019-04-06T08:05:50.078Z,20.90
2019-04-06T08:08:19.647Z,19.60
2019-04-06T08:10:49.203Z,19.67
2019-04-06T08:13:18.678Z,19.73
2019-04-06T08:15:48.060Z,20.00
2019-04-06T08:18:17.931Z,20.00
2019-04-06T08:20:47.657Z,20.97
2019-04-06T08:23:17.856Z,20.07
2019-04-06T08:25:47.545Z,19.57
2019-04-06T08:28:17.033Z,19.57
2019-04-06T08:30:47.666Z,19.60
2019-04-06T08:33:18.014Z,20.63
2019-04-06T08:35:48.386Z,19.30
2019-04-06T08:38:18.274Z,19.63
2019-04-06T08:40:47.809Z,18.77
2019-04-06T08:43:17.272Z,19.53
2019-04-06T08:45:47.093Z,17.70
2019-04-06T08:48:17.186Z,19.87
2019-04-06T08:50:46.705Z,19.50
2019-04-06T08:53:16.518Z,19.90
2019-04-06T08:55:46.404Z,19.47
2019-04-06T08:58:15.904Z,19.03
2019-04-06T09:00:45.526Z,19.63
2019-04-06T09:03:15.345Z,19.13
2019-04-06T09:05:45.133Z,19.60
2019-04-06T09:08:14.971Z,17.70
2019-04-06T09:10:44.421Z,18.83
2019-04-06T09:13:13.906Z,18.80
2019-04-06T09:15:43.910Z,18.87
2019-04-06T09:18:14.444Z,19.23
2019-04-06T09:20:44.261Z,19.10
2019-04-06T09:23:13.738Z,18.53
2019-04-06T09:25:43.189Z,20.03
2019-04-06T09:28:13.345Z,19.83
2019-04-06T09:30:43.083Z,18.63
2019-04-06T09:33:12.951Z,19.80
2019-04-06T09:35:42.495Z,19.67
2019-04-06T09:38:19.108Z,20.07
2019-04-06T09:40:50.395Z,19.87
2019-04-06T09:43:20.368Z,19.33
2019-04-06T09:46:04.905Z,17.83
2019-04-06T09:48:48.244Z,19.43
2019-04-06T09:51:35.843Z,20.10
2019-04-06T09:54:19.043Z,19.83
2019-04-06T09:57:06.308Z,18.77
2019-04-06T09:59:48.600Z,19.13
2019-04-06T10:02:43.514Z,19.10
2019-04-06T10:05:35.093Z,19.77
2019-04-06T10:08:26.787Z,19.03
2019-04-06T10:11:18.094Z,19.27
2019-04-06T10:14:05.229Z,19.03
2019-04-06T10:17:12.181Z,20.53
2019-04-06T10:20:07.462Z,19.37
2019-04-06T10:22:46.610Z,18.50
2019-04-06T10:25:37.961Z,19.90
2019-04-06T10:28:29.127Z,18.43
2019-04-06T10:31:16.441Z,18.73
2019-04-06T10:33:59.913Z,18.70
2019-04-06T10:36:43.825Z,19.53
2019-04-06T10:39:35.295Z,18.20
2019-04-06T10:42:29.643Z,20.33
2019-04-06T10:45:08.068Z,18.73
2019-04-06T10:48:04.074Z,18.27
2019-04-06T10:51:01.449Z,17.93
2019-04-06T10:53:56.245Z,18.60
2019-04-06T10:56:46.787Z,18.67
2019-04-06T10:59:35.488Z,17.83
2019-04-06T11:02:22.612Z,16.23
2019-04-06T11:04:57.366Z,17.53
2019-04-06T11:07:30.114Z,17.87
2019-04-06T11:10:17.309Z,16.60
2019-04-06T11:13:06.003Z,16.20
2019-04-06T11:15:48.722Z,17.37
2019-04-06T11:18:40.956Z,16.57
2019-04-06T11:21:35.664Z,16.53
2019-04-06T11:24:22.503Z,17.43
2019-04-06T11:27:12.035Z,16.40
2019-04-06T11:30:12.154Z,17.40
2019-04-06T11:32:54.301Z,16.53
2019-04-06T11:35:33.311Z,16.70
2019-04-06T11:38:23.937Z,17.10
2019-04-06T11:41:15.950Z,16.90
2019-04-06T11:44:07.870Z,17.40
2019-04-06T11:46:54.546Z,16.77
2019-04-06T11:49:32.683Z,15.40
2019-04-06T11:52:17.467Z,16.87
2019-04-06T11:55:13.633Z,17.90
2019-04-06T11:57:58.532Z,15.47
2019-04-06T12:00:53.527Z,16.33
2019-04-06T12:03:53.813Z,16.50
2019-04-06T12:06:32.858Z,15.40
2019-04-06T12:09:27.505Z,16.70
2019-04-06T12:12:28.726Z,17.17
2019-04-06T12:15:04.100Z,15.73
2019-04-06T12:17:59.753Z,14.67
2019-04-06T12:20:44.833Z,15.73
2019-04-06T12:23:36.206Z,16.27
2019-04-06T12:26:27.546Z,16.60
2019-04-06T12:29:10.929Z,15.73
2019-04-06T12:31:47.345Z,15.23
2019-04-06T12:34:47.785Z,15.67
2019-04-06T12:37:42.208Z,15.77
2019-04-06T12:40:18.615Z,16.33
2019-04-06T12:43:02.810Z,16.17
2019-04-06T12:45:47.194Z,16.37
2019-04-06T12:48:34.599Z,16.87
2019-04-06T12:51:22.200Z,16.40
2019-04-06T12:54:09.382Z,15.40
2019-04-06T12:57:00.841Z,17.00
2019-04-06T12:59:49.312Z,15.70
2019-04-06T13:02:29.462Z,16.73
2019-04-06T13:05:33.254Z,18.20
2019-04-06T13:08:40.269Z,16.33
2019-04-06T13:11:26.481Z,15.93
2019-04-06T13:14:24.004Z,15.33
2019-04-06T13:17:19.849Z,16.20
2019-04-06T13:20:10.537Z,16.13
2019-04-06T13:23:17.337Z,17.10
2019-04-06T13:26:15.117Z,17.17
2019-04-06T13:29:10.184Z,16.97
2019-04-06T13:31:56.200Z,16.90
2019-04-06T13:34:47.962Z,17.23
2019-04-06T13:37:45.894Z,17.17
2019-04-06T13:40:52.729Z,15.97
2019-04-06T13:43:43.707Z,16.60
2019-04-06T13:46:25.749Z,15.10
2019-04-06T13:49:23.722Z,16.10
2019-04-06T13:52:12.325Z,15.47
2019-04-06T13:55:03.522Z,15.70
2019-04-06T13:57:41.670Z,16.70
2019-04-06T14:00:39.492Z,16.23
2019-04-06T14:03:26.801Z,16.60
2019-04-06T14:06:13.801Z,16.83
2019-04-06T14:09:05.299Z,16.67
2019-04-06T14:11:41.939Z,17.30
2019-04-06T14:14:34.559Z,17.87
2019-04-06T14:17:38.621Z,17.00
2019-04-06T14:20:15.233Z,16.77
2019-04-06T14:23:09.451Z,18.30
2019-04-06T14:26:03.394Z,18.70
2019-04-06T14:28:39.611Z,17.87
2019-04-06T14:31:28.196Z,17.57
2019-04-06T14:34:18.749Z,16.77
2019-04-06T14:37:00.710Z,16.60
2019-04-06T14:39:40.641Z,17.77
2019-04-06T14:42:19.805Z,18.53
2019-04-06T14:45:06.861Z,18.40
2019-04-06T14:48:13.497Z,17.53
2019-04-06T14:51:02.955Z,16.93
2019-04-06T14:54:10.185Z,15.90
2019-04-06T14:57:01.527Z,16.57
2019-04-06T14:59:50.002Z,16.20
2019-04-06T15:02:29.756Z,17.00
2019-04-06T15:05:23.243Z,16.40
2019-04-06T15:08:05.950Z,14.93
2019-04-06T15:10:46.093Z,14.43
2019-04-06T15:13:23.643Z,13.77
2019-04-06T15:16:15.604Z,14.37
2019-04-06T15:19:06.818Z,14.70
2019-04-06T15:21:52.668Z,13.40
2019-04-06T15:24:32.747Z,13.03
2019-04-06T15:27:24.301Z,14.27
2019-04-06T15:30:21.473Z,13.03
2019-04-06T15:33:08.456Z,13.00
2019-04-06T15:35:59.861Z,12.80
2019-04-06T15:38:48.672Z,12.70
2019-04-06T15:41:56.922Z,12.33
2019-04-06T15:45:00.918Z,12.97
2019-04-06T15:47:43.453Z,12.57
2019-04-06T15:50:38.009Z,13.77
2019-04-06T15:53:20.092Z,13.27
2019-04-06T15:56:11.556Z,14.70
2019-04-06T15:58:58.776Z,13.87
2019-04-06T16:01:59.102Z,14.80
2019-04-06T16:04:33.613Z,14.37
2019-04-06T16:07:12.061Z,14.67
2019-04-06T16:09:59.325Z,16.23
2019-04-06T16:12:54.313Z,14.67
2019-04-06T16:15:52.343Z,15.77
2019-04-06T16:18:30.752Z,15.40
2019-04-06T16:21:18.015Z,16.27
2019-04-06T16:24:09.697Z,15.53
2019-04-06T16:26:45.786Z,16.13
2019-04-06T16:29:34.118Z,15.93
2019-04-06T16:32:31.419Z,16.47
2019-04-06T16:35:25.691Z,16.87
2019-04-06T16:38:14.633Z,16.13
2019-04-06T16:41:18.719Z,17.10
2019-04-06T16:44:16.624Z,15.80
2019-04-06T16:46:53.090Z,17.00
2019-04-06T16:49:51.112Z,15.83
2019-04-06T16:52:42.861Z,16.67
2019-04-06T16:55:49.932Z,15.50
2019-04-06T16:58:41.302Z,15.13
2019-04-06T17:01:30.769Z,15.40
2019-04-06T17:04:22.236Z,15.37
2019-04-06T17:07:20.250Z,15.33
2019-04-06T17:10:14.909Z,14.97
2019-04-06T17:13:14.459Z,15.23
2019-04-06T17:16:21.564Z,16.83
2019-04-06T17:18:58.292Z,13.63
2019-04-06T17:21:52.201Z,14.27
2019-04-06T17:24:46.945Z,13.33
2019-04-06T17:27:33.278Z,12.40
2019-04-06T17:30:08.887Z,13.27
2019-04-06T17:32:56.325Z,13.50
2019-04-06T17:35:48.357Z,12.43
2019-04-06T17:38:37.293Z,13.07
2019-04-06T17:41:28.693Z,12.97
2019-04-06T17:44:20.253Z,12.07
2019-04-06T17:47:11.440Z,12.67
2019-04-06T17:49:52.253Z,14.70
2019-04-06T17:52:36.182Z,16.60
2019-04-06T17:55:24.720Z,15.97
2019-04-06T17:58:12.102Z,17.63
2019-04-06T18:00:55.291Z,17.40
2019-04-06T18:03:42.869Z,16.43
2019-04-06T18:06:37.413Z,17.63
2019-04-06T18:09:30.572Z,18.17
2019-04-06T18:12:34.972Z,17.63
2019-04-06T18:15:05.099Z,17.17
2019-04-06T18:17:34.877Z,17.40
2019-04-06T18:20:05.218Z,18.43
2019-04-06T18:22:34.704Z,16.47
2019-04-06T18:25:04.828Z,16.47
2019-04-06T18:27:35.414Z,17.23
2019-04-06T18:30:06.865Z,15.97
2019-04-06T18:32:58.216Z,15.63
2019-04-06T18:35:19.029Z,14.53
2019-04-06T18:38:06.887Z,14.23
2019-04-06T18:40:37.189Z,13.90
2019-04-06T18:43:07.494Z,13.57
2019-04-06T18:45:37.662Z,14.00
2019-04-06T18:48:07.796Z,13.87
2019-04-06T18:50:38.961Z,14.60
2019-04-06T18:53:09.198Z,14.37
2019-04-06T18:55:39.091Z,14.10
2019-04-06T18:58:12.393Z,14.40
2019-04-06T19:00:40.106Z,14.03
2019-04-06T19:03:14.689Z,14.30
2019-04-06T19:05:40.875Z,14.53
2019-04-06T19:08:13.232Z,14.67
2019-04-06T19:10:43.185Z,14.10
2019-04-06T19:13:12.792Z,15.20
2019-04-06T19:15:42.833Z,15.20
2019-04-06T19:18:12.623Z,15.43
2019-04-06T19:20:42.671Z,15.73
2019-04-06T19:23:12.180Z,16.63
2019-04-06T19:25:44.338Z,17.40
2019-04-06T19:28:14.369Z,15.90
2019-04-06T19:30:44.531Z,15.53
2019-04-06T19:33:23.273Z,16.67
2019-04-06T19:35:46.129Z,17.23
2019-04-06T19:38:17.849Z,16.40
2019-04-06T19:40:47.750Z,18.90
2019-04-06T19:43:17.996Z,18.17
2019-04-06T19:45:48.681Z,17.13
2019-04-06T19:48:21.014Z,17.17
2019-04-06T19:50:51.589Z,18.27
2019-04-06T19:53:21.808Z,17.50
2019-04-06T19:55:52.064Z,17.30
2019-04-06T19:58:22.679Z,17.43
2019-04-06T20:00:52.593Z,16.83
2019-04-06T20:03:33.702Z,17.27
2019-04-06T20:05:53.703Z,17.37
2019-04-06T20:08:23.776Z,17.87
2019-04-06T20:10:53.556Z,17.00
2019-04-06T20:13:23.682Z,18.97
2019-04-06T20:15:53.522Z,20.00
2019-04-06T20:18:23.682Z,18.80
2019-04-06T20:20:53.158Z,18.00
2019-04-06T20:23:23.123Z,18.80
2019-04-06T20:25:53.104Z,18.30
2019-04-06T20:28:22.617Z,22.20
2019-04-06T20:30:52.181Z,19.47
2019-04-06T20:33:22.046Z,19.93
2019-04-06T20:35:52.125Z,19.50
2019-04-06T20:38:21.885Z,21.17
2019-04-06T20:40:51.688Z,21.47
2019-04-06T20:43:21.440Z,20.47
2019-04-06T20:45:51.150Z,21.93
2019-04-06T20:48:20.631Z,21.47
2019-04-06T20:50:50.077Z,23.03
2019-04-06T20:53:19.921Z,24.03
2019-04-06T20:55:49.853Z,22.67
2019-04-06T20:58:20.361Z,20.70
2019-04-06T21:00:50.512Z,26.17
2019-04-06T21:03:20.589Z,26.83
2019-04-06T21:05:50.029Z,26.13
2019-04-06T21:08:20.066Z,27.07
2019-04-06T21:10:49.957Z,29.83
2019-04-06T21:13:19.378Z,28.53
2019-04-06T21:15:48.922Z,28.47
2019-04-06T21:18:19.459Z,32.20
2019-04-06T21:20:48.890Z,31.17
2019-04-06T21:23:18.320Z,31.97
2019-04-06T21:25:48.144Z,31.67
2019-04-06T21:28:18.141Z,30.63
2019-04-06T21:30:47.882Z,31.00
2019-04-06T21:33:17.711Z,32.07
2019-04-06T21:35:47.473Z,29.93
2019-04-06T21:38:17.209Z,29.37
2019-04-06T21:40:47.926Z,30.40
2019-04-06T21:43:17.431Z,29.43
2019-04-06T21:45:47.241Z,32.47
2019-04-06T21:48:17.074Z,32.03
2019-04-06T21:50:46.643Z,31.40
2019-04-06T21:53:16.085Z,31.87
2019-04-06T21:55:45.888Z,31.53
2019-04-06T21:58:15.701Z,29.43
2019-04-06T22:00:55.273Z,30.80
2019-04-06T22:03:25.946Z,30.37
2019-04-06T22:05:55.794Z,29.17
2019-04-06T22:08:25.231Z,28.00
2019-04-06T22:10:55.024Z,28.13
2019-04-06T22:13:24.948Z,28.07
2019-04-06T22:15:55.448Z,28.13
2019-04-06T22:18:25.021Z,27.27
2019-04-06T22:20:54.575Z,27.43
2019-04-06T22:23:24.205Z,26.80
2019-04-06T22:25:53.727Z,26.20
2019-04-06T22:28:23.149Z,25.90
2019-04-06T22:30:52.516Z,26.87
2019-04-06T22:33:22.612Z,26.73
2019-04-06T22:35:52.049Z,24.90
2019-04-06T22:38:21.663Z,25.27
2019-04-06T22:40:51.892Z,24.90
2019-04-06T22:43:21.760Z,23.37
2019-04-06T22:45:51.884Z,22.93
2019-04-06T22:48:21.396Z,21.80
2019-04-06T22:50:52.417Z,22.27
2019-04-06T22:53:22.581Z,22.63
2019-04-06T22:55:52.568Z,22.63
2019-04-06T22:58:22.577Z,23.77
2019-04-06T23:01:00.187Z,22.77
2019-04-06T23:03:54.253Z,22.43
2019-04-06T23:06:28.878Z,22.20
2019-04-06T23:08:59.543Z,23.33
2019-04-06T23:11:28.949Z,24.17
2019-04-06T23:13:58.345Z,23.60
2019-04-06T23:16:27.706Z,22.80
2019-04-06T23:18:57.537Z,21.83
2019-04-06T23:21:26.897Z,21.47
2019-04-06T23:23:56.763Z,21.33
2019-04-06T23:26:26.232Z,22.13
2019-04-06T23:28:55.677Z,21.77
2019-04-06T23:31:25.710Z,22.23
2019-04-06T23:33:55.688Z,24.53
2019-04-06T23:36:25.119Z,22.50
2019-04-06T23:38:54.861Z,24.40
2019-04-06T23:41:24.388Z,23.30
2019-04-06T23:43:54.148Z,20.33
2019-04-06T23:46:23.517Z,20.50
2019-04-06T23:48:53.308Z,19.27
2019-04-06T23:51:23.372Z,19.47
2019-04-06T23:53:53.563Z,18.33
2019-04-06T23:56:23.022Z,19.00
2019-04-06T23:58:52.432Z,19.27
